sensor_id;sensor_type;location;lat;lon;timestamp;temperature;humidity
19567;DHT22;9930;49.240;8.548;2023-06-10T00:00:53;24.30;46.90
19567;DHT22;9930;49.240;8.548;2023-06-10T00:03:19;24.30;47.00
19567;DHT22;9930;49.240;8.548;2023-06-10T00:05:48;24.20;47.10
19567;DHT22;9930;49.240;8.548;2023-06-10T00:08:16;24.20;47.10
19567;DHT22;9930;49.240;8.548;2023-06-10T00:10:47;24.20;47.20
19567;DHT22;9930;49.240;8.548;2023-06-10T00:13:12;24.20;47.30
19567;DHT22;9930;49.240;8.548;2023-06-10T00:15:41;24.20;47.20
19567;DHT22;9930;49.240;8.548;2023-06-10T00:18:09;24.10;47.30
19567;DHT22;9930;49.240;8.548;2023-06-10T00:20:40;24.10;47.40
19567;DHT22;9930;49.240;8.548;2023-06-10T00:23:11;24.10;47.50
19567;DHT22;9930;49.240;8.548;2023-06-10T00:25:39;24.00;47.50
19567;DHT22;9930;49.240;8.548;2023-06-10T00:28:06;24.00;47.60
19567;DHT22;9930;49.240;8.548;2023-06-10T00:30:34;24.00;47.70
19567;DHT22;9930;49.240;8.548;2023-06-10T00:33:12;23.90;47.70
19567;DHT22;9930;49.240;8.548;2023-06-10T00:35:37;23.90;48.20
19567;DHT22;9930;49.240;8.548;2023-06-10T00:38:06;23.80;47.90
19567;DHT22;9930;49.240;8.548;2023-06-10T00:40:43;23.80;48.10
19567;DHT22;9930;49.240;8.548;2023-06-10T00:43:12;23.70;48.50
19567;DHT22;9930;49.240;8.548;2023-06-10T00:45:40;23.70;48.30
19567;DHT22;9930;49.240;8.548;2023-06-10T00:48:09;23.60;48.30
19567;DHT22;9930;49.240;8.548;2023-06-10T00:50:39;23.50;48.50
19567;DHT22;9930;49.240;8.548;2023-06-10T00:53:11;23.60;48.90
19567;DHT22;9930;49.240;8.548;2023-06-10T00:55:40;23.50;49.20
19567;DHT22;9930;49.240;8.548;2023-06-10T00:58:09;23.50;49.00
19567;DHT22;9930;49.240;8.548;2023-06-10T01:00:45;23.40;49.20
19567;DHT22;9930;49.240;8.548;2023-06-10T01:03:12;23.30;49.50
19567;DHT22;9930;49.240;8.548;2023-06-10T01:05:38;23.30;49.30
19567;DHT22;9930;49.240;8.548;2023-06-10T01:11:01;23.20;49.80
19567;DHT22;9930;49.240;8.548;2023-06-10T01:13:35;23.10;49.90
19567;DHT22;9930;49.240;8.548;2023-06-10T01:16:05;23.00;49.90
19567;DHT22;9930;49.240;8.548;2023-06-10T01:18:39;23.00;50.00
19567;DHT22;9930;49.240;8.548;2023-06-10T01:21:25;22.90;50.20
19567;DHT22;9930;49.240;8.548;2023-06-10T01:23:53;22.90;50.80
19567;DHT22;9930;49.240;8.548;2023-06-10T01:26:30;22.80;50.40
19567;DHT22;9930;49.240;8.548;2023-06-10T01:29:11;22.70;50.60
19567;DHT22;9930;49.240;8.548;2023-06-10T01:32:00;22.70;50.90
19567;DHT22;9930;49.240;8.548;2023-06-10T01:34:31;22.60;51.30
19567;DHT22;9930;49.240;8.548;2023-06-10T01:37:02;22.60;51.00
19567;DHT22;9930;49.240;8.548;2023-06-10T01:39:30;22.60;51.00
19567;DHT22;9930;49.240;8.548;2023-06-10T01:41:57;22.50;51.10
19567;DHT22;9930;49.240;8.548;2023-06-10T01:44:23;22.50;51.80
19567;DHT22;9930;49.240;8.548;2023-06-10T01:46:49;22.50;51.30
19567;DHT22;9930;49.240;8.548;2023-06-10T01:49:15;22.50;51.20
19567;DHT22;9930;49.240;8.548;2023-06-10T01:51:41;22.40;51.20
19567;DHT22;9930;49.240;8.548;2023-06-10T01:54:09;22.40;51.20
19567;DHT22;9930;49.240;8.548;2023-06-10T01:56:37;22.40;51.30
19567;DHT22;9930;49.240;8.548;2023-06-10T01:59:04;22.40;51.40
19567;DHT22;9930;49.240;8.548;2023-06-10T02:01:33;22.30;51.40
19567;DHT22;9930;49.240;8.548;2023-06-10T02:04:01;22.30;51.70
19567;DHT22;9930;49.240;8.548;2023-06-10T02:06:27;22.30;51.80
19567;DHT22;9930;49.240;8.548;2023-06-10T02:08:53;22.30;51.90
19567;DHT22;9930;49.240;8.548;2023-06-10T02:11:19;22.20;52.60
19567;DHT22;9930;49.240;8.548;2023-06-10T02:13:44;22.20;52.10
19567;DHT22;9930;49.240;8.548;2023-06-10T02:16:10;22.20;52.20
19567;DHT22;9930;49.240;8.548;2023-06-10T02:18:38;22.20;52.30
19567;DHT22;9930;49.240;8.548;2023-06-10T02:21:10;22.10;52.30
19567;DHT22;9930;49.240;8.548;2023-06-10T02:23:43;22.10;52.60
19567;DHT22;9930;49.240;8.548;2023-06-10T02:26:12;22.10;52.60
19567;DHT22;9930;49.240;8.548;2023-06-10T02:28:37;22.10;52.70
19567;DHT22;9930;49.240;8.548;2023-06-10T02:31:04;22.00;52.50
19567;DHT22;9930;49.240;8.548;2023-06-10T02:33:34;22.00;52.60
19567;DHT22;9930;49.240;8.548;2023-06-10T02:36:02;22.00;52.80
19567;DHT22;9930;49.240;8.548;2023-06-10T02:38:28;21.90;52.90
19567;DHT22;9930;49.240;8.548;2023-06-10T02:40:53;21.90;53.00
19567;DHT22;9930;49.240;8.548;2023-06-10T02:43:22;21.90;53.20
19567;DHT22;9930;49.240;8.548;2023-06-10T02:45:50;21.80;53.20
19567;DHT22;9930;49.240;8.548;2023-06-10T02:48:16;21.80;53.20
19567;DHT22;9930;49.240;8.548;2023-06-10T02:50:46;21.80;53.40
19567;DHT22;9930;49.240;8.548;2023-06-10T02:53:14;21.80;53.50
19567;DHT22;9930;49.240;8.548;2023-06-10T02:55:45;21.80;53.50
19567;DHT22;9930;49.240;8.548;2023-06-10T02:58:10;21.80;53.50
19567;DHT22;9930;49.240;8.548;2023-06-10T03:00:37;21.70;53.50
19567;DHT22;9930;49.240;8.548;2023-06-10T03:03:06;21.70;53.70
19567;DHT22;9930;49.240;8.548;2023-06-10T03:05:32;21.70;53.80
19567;DHT22;9930;49.240;8.548;2023-06-10T03:07:58;21.70;53.90
19567;DHT22;9930;49.240;8.548;2023-06-10T03:10:28;21.70;54.00
19567;DHT22;9930;49.240;8.548;2023-06-10T03:12:54;21.60;54.00
19567;DHT22;9930;49.240;8.548;2023-06-10T03:15:20;21.60;54.10
19567;DHT22;9930;49.240;8.548;2023-06-10T03:17:46;21.60;54.10
19567;DHT22;9930;49.240;8.548;2023-06-10T03:20:12;21.60;54.10
19567;DHT22;9930;49.240;8.548;2023-06-10T03:22:37;21.50;54.10
19567;DHT22;9930;49.240;8.548;2023-06-10T03:25:12;21.50;54.10
19567;DHT22;9930;49.240;8.548;2023-06-10T03:27:43;21.50;54.20
19567;DHT22;9930;49.240;8.548;2023-06-10T03:30:14;21.40;54.30
19567;DHT22;9930;49.240;8.548;2023-06-10T03:32:40;21.40;54.40
19567;DHT22;9930;49.240;8.548;2023-06-10T03:35:09;21.40;54.40
19567;DHT22;9930;49.240;8.548;2023-06-10T03:37:38;21.40;54.50
19567;DHT22;9930;49.240;8.548;2023-06-10T03:40:06;21.30;54.70
19567;DHT22;9930;49.240;8.548;2023-06-10T03:42:35;21.30;54.60
19567;DHT22;9930;49.240;8.548;2023-06-10T03:45:03;21.30;54.70
19567;DHT22;9930;49.240;8.548;2023-06-10T03:47:38;21.30;54.80
19567;DHT22;9930;49.240;8.548;2023-06-10T03:50:08;21.30;55.10
19567;DHT22;9930;49.240;8.548;2023-06-10T03:52:38;21.30;55.10
19567;DHT22;9930;49.240;8.548;2023-06-10T03:55:07;21.30;55.30
19567;DHT22;9930;49.240;8.548;2023-06-10T03:57:42;21.40;55.50
19567;DHT22;9930;49.240;8.548;2023-06-10T04:00:08;21.40;55.50
19567;DHT22;9930;49.240;8.548;2023-06-10T04:02:41;21.50;55.60
19567;DHT22;9930;49.240;8.548;2023-06-10T04:05:12;21.60;55.50
19567;DHT22;9930;49.240;8.548;2023-06-10T04:07:44;21.70;55.30
19567;DHT22;9930;49.240;8.548;2023-06-10T04:10:12;21.80;55.10
19567;DHT22;9930;49.240;8.548;2023-06-10T04:12:38;21.80;54.90
19567;DHT22;9930;49.240;8.548;2023-06-10T04:15:06;21.90;54.80
19567;DHT22;9930;49.240;8.548;2023-06-10T04:17:37;21.90;54.70
19567;DHT22;9930;49.240;8.548;2023-06-10T04:20:06;21.90;54.60
19567;DHT22;9930;49.240;8.548;2023-06-10T04:22:33;22.00;54.60
19567;DHT22;9930;49.240;8.548;2023-06-10T04:24:59;22.00;54.80
19567;DHT22;9930;49.240;8.548;2023-06-10T04:27:29;22.00;54.90
19567;DHT22;9930;49.240;8.548;2023-06-10T04:29:58;22.10;55.00
19567;DHT22;9930;49.240;8.548;2023-06-10T04:32:24;22.10;54.90
19567;DHT22;9930;49.240;8.548;2023-06-10T04:34:49;22.10;54.80
19567;DHT22;9930;49.240;8.548;2023-06-10T04:37:18;22.10;54.70
19567;DHT22;9930;49.240;8.548;2023-06-10T04:39:43;22.20;54.80
19567;DHT22;9930;49.240;8.548;2023-06-10T04:42:09;22.20;54.90
19567;DHT22;9930;49.240;8.548;2023-06-10T04:44:37;22.20;55.00
19567;DHT22;9930;49.240;8.548;2023-06-10T04:47:04;22.30;55.00
19567;DHT22;9930;49.240;8.548;2023-06-10T04:49:37;22.30;55.10
19567;DHT22;9930;49.240;8.548;2023-06-10T04:52:08;22.30;55.00
19567;DHT22;9930;49.240;8.548;2023-06-10T04:54:33;22.40;54.90
19567;DHT22;9930;49.240;8.548;2023-06-10T04:56:59;22.40;54.80
19567;DHT22;9930;49.240;8.548;2023-06-10T04:59:25;22.50;54.80
19567;DHT22;9930;49.240;8.548;2023-06-10T05:01:53;22.50;55.00
19567;DHT22;9930;49.240;8.548;2023-06-10T05:04:22;22.60;55.50
19567;DHT22;9930;49.240;8.548;2023-06-10T05:06:50;22.90;56.10
19567;DHT22;9930;49.240;8.548;2023-06-10T05:09:16;23.20;56.40
19567;DHT22;9930;49.240;8.548;2023-06-10T05:11:42;23.60;56.40
19567;DHT22;9930;49.240;8.548;2023-06-10T05:14:08;24.00;56.30
19567;DHT22;9930;49.240;8.548;2023-06-10T05:16:34;24.50;56.10
19567;DHT22;9930;49.240;8.548;2023-06-10T05:19:00;24.90;55.50
19567;DHT22;9930;49.240;8.548;2023-06-10T05:21:29;25.40;55.20
19567;DHT22;9930;49.240;8.548;2023-06-10T05:23:57;25.80;54.60
19567;DHT22;9930;49.240;8.548;2023-06-10T05:26:26;26.30;54.10
19567;DHT22;9930;49.240;8.548;2023-06-10T05:28:51;26.70;53.60
19567;DHT22;9930;49.240;8.548;2023-06-10T05:31:21;27.00;53.00
19567;DHT22;9930;49.240;8.548;2023-06-10T05:33:52;27.40;52.30
19567;DHT22;9930;49.240;8.548;2023-06-10T05:36:17;27.70;51.90
19567;DHT22;9930;49.240;8.548;2023-06-10T05:38:43;28.00;51.30
19567;DHT22;9930;49.240;8.548;2023-06-10T05:41:10;28.30;50.70
19567;DHT22;9930;49.240;8.548;2023-06-10T05:43:37;28.50;50.20
19567;DHT22;9930;49.240;8.548;2023-06-10T05:46:05;28.70;49.80
19567;DHT22;9930;49.240;8.548;2023-06-10T05:48:32;29.00;49.50
19567;DHT22;9930;49.240;8.548;2023-06-10T05:50:57;29.20;49.10
19567;DHT22;9930;49.240;8.548;2023-06-10T05:53:23;29.40;48.60
19567;DHT22;9930;49.240;8.548;2023-06-10T05:55:51;29.60;48.30
19567;DHT22;9930;49.240;8.548;2023-06-10T05:58:19;29.70;47.70
19567;DHT22;9930;49.240;8.548;2023-06-10T06:00:47;29.80;47.20
19567;DHT22;9930;49.240;8.548;2023-06-10T06:03:13;29.90;46.50
19567;DHT22;9930;49.240;8.548;2023-06-10T06:05:43;29.90;46.30
19567;DHT22;9930;49.240;8.548;2023-06-10T06:08:09;30.00;46.10
19567;DHT22;9930;49.240;8.548;2023-06-10T06:10:44;30.00;45.70
19567;DHT22;9930;49.240;8.548;2023-06-10T06:13:10;30.00;44.90
19567;DHT22;9930;49.240;8.548;2023-06-10T06:15:36;30.10;45.40
19567;DHT22;9930;49.240;8.548;2023-06-10T06:18:10;30.10;45.20
19567;DHT22;9930;49.240;8.548;2023-06-10T06:20:37;30.10;44.80
19567;DHT22;9930;49.240;8.548;2023-06-10T06:23:03;30.00;44.30
19567;DHT22;9930;49.240;8.548;2023-06-10T06:25:29;30.00;44.40
19567;DHT22;9930;49.240;8.548;2023-06-10T06:27:56;29.90;44.40
19567;DHT22;9930;49.240;8.548;2023-06-10T06:30:22;29.90;44.50
19567;DHT22;9930;49.240;8.548;2023-06-10T06:32:50;29.80;44.30
19567;DHT22;9930;49.240;8.548;2023-06-10T06:35:19;29.80;44.40
19567;DHT22;9930;49.240;8.548;2023-06-10T06:37:45;29.80;44.60
19567;DHT22;9930;49.240;8.548;2023-06-10T06:40:13;29.80;44.70
19567;DHT22;9930;49.240;8.548;2023-06-10T06:42:44;29.80;44.50
19567;DHT22;9930;49.240;8.548;2023-06-10T06:45:10;29.80;44.40
19567;DHT22;9930;49.240;8.548;2023-06-10T06:47:39;29.80;44.40
19567;DHT22;9930;49.240;8.548;2023-06-10T06:50:10;29.80;44.10
19567;DHT22;9930;49.240;8.548;2023-06-10T06:52:36;29.70;44.20
19567;DHT22;9930;49.240;8.548;2023-06-10T06:55:02;29.60;44.50
19567;DHT22;9930;49.240;8.548;2023-06-10T06:57:30;29.60;44.80
19567;DHT22;9930;49.240;8.548;2023-06-10T06:59:56;29.60;44.80
19567;DHT22;9930;49.240;8.548;2023-06-10T07:02:21;29.60;44.80
19567;DHT22;9930;49.240;8.548;2023-06-10T07:04:49;29.50;45.00
19567;DHT22;9930;49.240;8.548;2023-06-10T07:07:20;29.50;45.00
19567;DHT22;9930;49.240;8.548;2023-06-10T07:09:51;29.40;45.00
19567;DHT22;9930;49.240;8.548;2023-06-10T07:12:17;29.30;45.00
19567;DHT22;9930;49.240;8.548;2023-06-10T07:14:49;29.30;45.10
19567;DHT22;9930;49.240;8.548;2023-06-10T07:17:16;29.20;45.10
19567;DHT22;9930;49.240;8.548;2023-06-10T07:19:45;29.20;45.40
19567;DHT22;9930;49.240;8.548;2023-06-10T07:22:11;29.20;46.00
19567;DHT22;9930;49.240;8.548;2023-06-10T07:24:39;29.20;45.90
19567;DHT22;9930;49.240;8.548;2023-06-10T07:27:07;29.20;45.80
19567;DHT22;9930;49.240;8.548;2023-06-10T07:29:39;29.20;45.80
19567;DHT22;9930;49.240;8.548;2023-06-10T07:32:07;29.30;46.10
19567;DHT22;9930;49.240;8.548;2023-06-10T07:34:37;29.30;45.80
19567;DHT22;9930;49.240;8.548;2023-06-10T07:37:06;29.40;45.70
19567;DHT22;9930;49.240;8.548;2023-06-10T07:39:34;29.50;45.60
19567;DHT22;9930;49.240;8.548;2023-06-10T07:42:02;29.50;45.60
19567;DHT22;9930;49.240;8.548;2023-06-10T07:44:32;29.60;45.50
19567;DHT22;9930;49.240;8.548;2023-06-10T07:46:57;29.70;45.40
19567;DHT22;9930;49.240;8.548;2023-06-10T07:49:25;29.70;45.20
19567;DHT22;9930;49.240;8.548;2023-06-10T07:52:01;29.80;45.30
19567;DHT22;9930;49.240;8.548;2023-06-10T07:54:31;29.80;44.80
19567;DHT22;9930;49.240;8.548;2023-06-10T07:56:57;30.00;45.30
19567;DHT22;9930;49.240;8.548;2023-06-10T07:59:22;30.00;45.00
19567;DHT22;9930;49.240;8.548;2023-06-10T08:01:48;30.10;44.90
19567;DHT22;9930;49.240;8.548;2023-06-10T08:04:14;30.10;44.80
19567;DHT22;9930;49.240;8.548;2023-06-10T08:06:39;30.10;44.90
19567;DHT22;9930;49.240;8.548;2023-06-10T08:09:12;30.20;44.90
19567;DHT22;9930;49.240;8.548;2023-06-10T08:11:41;30.30;44.30
19567;DHT22;9930;49.240;8.548;2023-06-10T08:14:08;30.30;44.50
19567;DHT22;9930;49.240;8.548;2023-06-10T08:16:44;30.40;44.80
19567;DHT22;9930;49.240;8.548;2023-06-10T08:19:12;30.40;44.90
19567;DHT22;9930;49.240;8.548;2023-06-10T08:21:38;30.50;45.20
19567;DHT22;9930;49.240;8.548;2023-06-10T08:24:12;30.60;44.80
19567;DHT22;9930;49.240;8.548;2023-06-10T08:26:41;30.60;44.00
19567;DHT22;9930;49.240;8.548;2023-06-10T08:29:12;30.70;44.10
19567;DHT22;9930;49.240;8.548;2023-06-10T08:31:44;30.80;43.90
19567;DHT22;9930;49.240;8.548;2023-06-10T08:34:09;30.80;43.60
19567;DHT22;9930;49.240;8.548;2023-06-10T08:36:38;30.80;43.40
19567;DHT22;9930;49.240;8.548;2023-06-10T08:39:06;30.80;43.70
19567;DHT22;9930;49.240;8.548;2023-06-10T08:41:41;30.80;43.60
19567;DHT22;9930;49.240;8.548;2023-06-10T08:44:32;30.90;43.30
19567;DHT22;9930;49.240;8.548;2023-06-10T08:47:07;30.80;43.10
19567;DHT22;9930;49.240;8.548;2023-06-10T08:49:43;30.80;43.00
19567;DHT22;9930;49.240;8.548;2023-06-10T08:52:18;30.90;43.00
19567;DHT22;9930;49.240;8.548;2023-06-10T08:55:05;30.90;43.70
19567;DHT22;9930;49.240;8.548;2023-06-10T08:57:43;30.80;44.40
19567;DHT22;9930;49.240;8.548;2023-06-10T09:00:11;30.90;43.60
19567;DHT22;9930;49.240;8.548;2023-06-10T09:02:40;30.90;43.50
19567;DHT22;9930;49.240;8.548;2023-06-10T09:05:10;30.90;43.20
19567;DHT22;9930;49.240;8.548;2023-06-10T09:07:39;30.90;43.00
19567;DHT22;9930;49.240;8.548;2023-06-10T09:10:10;31.00;43.10
19567;DHT22;9930;49.240;8.548;2023-06-10T09:12:41;31.00;42.70
19567;DHT22;9930;49.240;8.548;2023-06-10T09:15:07;31.00;42.70
19567;DHT22;9930;49.240;8.548;2023-06-10T09:17:40;31.00;42.60
19567;DHT22;9930;49.240;8.548;2023-06-10T09:20:11;31.00;42.20
19567;DHT22;9930;49.240;8.548;2023-06-10T09:22:40;31.00;42.20
19567;DHT22;9930;49.240;8.548;2023-06-10T09:25:12;30.90;42.60
19567;DHT22;9930;49.240;8.548;2023-06-10T09:27:49;30.90;42.10
19567;DHT22;9930;49.240;8.548;2023-06-10T09:30:32;30.80;41.60
19567;DHT22;9930;49.240;8.548;2023-06-10T09:33:09;30.80;41.80
19567;DHT22;9930;49.240;8.548;2023-06-10T09:35:48;30.80;41.80
19567;DHT22;9930;49.240;8.548;2023-06-10T09:38:29;30.80;42.20
19567;DHT22;9930;49.240;8.548;2023-06-10T09:40:57;30.80;42.20
19567;DHT22;9930;49.240;8.548;2023-06-10T09:43:43;30.90;41.90
19567;DHT22;9930;49.240;8.548;2023-06-10T09:46:17;30.80;41.60
19567;DHT22;9930;49.240;8.548;2023-06-10T09:48:47;30.80;41.20
19567;DHT22;9930;49.240;8.548;2023-06-10T09:51:18;30.80;41.10
19567;DHT22;9930;49.240;8.548;2023-06-10T09:53:51;30.80;41.10
19567;DHT22;9930;49.240;8.548;2023-06-10T09:56:18;30.80;40.70
19567;DHT22;9930;49.240;8.548;2023-06-10T09:58:44;30.80;41.00
19567;DHT22;9930;49.240;8.548;2023-06-10T10:01:14;30.80;40.80
19567;DHT22;9930;49.240;8.548;2023-06-10T10:03:52;30.80;40.90
19567;DHT22;9930;49.240;8.548;2023-06-10T10:06:19;30.80;40.70
19567;DHT22;9930;49.240;8.548;2023-06-10T10:08:50;30.90;40.70
19567;DHT22;9930;49.240;8.548;2023-06-10T10:11:18;30.90;40.90
19567;DHT22;9930;49.240;8.548;2023-06-10T10:13:48;31.00;40.70
19567;DHT22;9930;49.240;8.548;2023-06-10T10:16:35;31.00;40.70
19567;DHT22;9930;49.240;8.548;2023-06-10T10:19:29;31.00;40.60
19567;DHT22;9930;49.240;8.548;2023-06-10T10:22:08;31.10;40.70
19567;DHT22;9930;49.240;8.548;2023-06-10T10:24:49;31.10;40.40
19567;DHT22;9930;49.240;8.548;2023-06-10T10:27:42;31.20;40.50
19567;DHT22;9930;49.240;8.548;2023-06-10T10:30:13;31.30;40.20
19567;DHT22;9930;49.240;8.548;2023-06-10T10:33:03;31.40;40.40
19567;DHT22;9930;49.240;8.548;2023-06-10T10:35:36;31.40;40.00
19567;DHT22;9930;49.240;8.548;2023-06-10T10:38:06;31.50;39.90
19567;DHT22;9930;49.240;8.548;2023-06-10T10:40:35;31.60;39.90
19567;DHT22;9930;49.240;8.548;2023-06-10T10:43:06;31.70;39.70
19567;DHT22;9930;49.240;8.548;2023-06-10T10:45:34;31.70;39.40
19567;DHT22;9930;49.240;8.548;2023-06-10T10:48:08;31.70;39.20
19567;DHT22;9930;49.240;8.548;2023-06-10T10:50:38;31.70;38.90
19567;DHT22;9930;49.240;8.548;2023-06-10T10:53:05;31.70;39.30
19567;DHT22;9930;49.240;8.548;2023-06-10T10:55:33;31.80;39.20
19567;DHT22;9930;49.240;8.548;2023-06-10T10:58:07;31.90;38.60
19567;DHT22;9930;49.240;8.548;2023-06-10T11:00:45;31.90;38.60
19567;DHT22;9930;49.240;8.548;2023-06-10T11:03:15;31.90;38.50
19567;DHT22;9930;49.240;8.548;2023-06-10T11:05:48;32.00;38.60
19567;DHT22;9930;49.240;8.548;2023-06-10T11:08:15;32.10;39.20
19567;DHT22;9930;49.240;8.548;2023-06-10T11:11:26;32.20;38.80
19567;DHT22;9930;49.240;8.548;2023-06-10T11:16:41;32.30;37.20
19567;DHT22;9930;49.240;8.548;2023-06-10T11:19:39;32.30;37.40
19567;DHT22;9930;49.240;8.548;2023-06-10T11:22:16;32.30;37.00
19567;DHT22;9930;49.240;8.548;2023-06-10T11:24:48;32.30;36.80
19567;DHT22;9930;49.240;8.548;2023-06-10T11:27:22;32.20;36.70
19567;DHT22;9930;49.240;8.548;2023-06-10T11:32:32;32.20;36.60
19567;DHT22;9930;49.240;8.548;2023-06-10T11:35:03;32.10;36.80
19567;DHT22;9930;49.240;8.548;2023-06-10T11:37:29;32.10;36.70
19567;DHT22;9930;49.240;8.548;2023-06-10T11:39:55;32.20;37.70
19567;DHT22;9930;49.240;8.548;2023-06-10T11:42:23;32.20;37.30
19567;DHT22;9930;49.240;8.548;2023-06-10T11:44:53;32.20;37.20
19567;DHT22;9930;49.240;8.548;2023-06-10T11:47:20;32.30;37.00
19567;DHT22;9930;49.240;8.548;2023-06-10T11:49:56;32.30;37.10
19567;DHT22;9930;49.240;8.548;2023-06-10T11:52:31;32.40;37.00
19567;DHT22;9930;49.240;8.548;2023-06-10T11:55:01;32.50;36.40
19567;DHT22;9930;49.240;8.548;2023-06-10T11:57:34;32.50;36.50
19567;DHT22;9930;49.240;8.548;2023-06-10T12:00:05;32.60;36.30
19567;DHT22;9930;49.240;8.548;2023-06-10T12:02:33;32.60;36.00
19567;DHT22;9930;49.240;8.548;2023-06-10T12:05:14;32.70;35.60
19567;DHT22;9930;49.240;8.548;2023-06-10T12:07:40;32.60;35.50
19567;DHT22;9930;49.240;8.548;2023-06-10T12:10:09;32.60;35.80
19567;DHT22;9930;49.240;8.548;2023-06-10T12:12:35;32.60;35.60
19567;DHT22;9930;49.240;8.548;2023-06-10T12:15:10;32.60;35.40
19567;DHT22;9930;49.240;8.548;2023-06-10T12:17:38;32.60;36.00
19567;DHT22;9930;49.240;8.548;2023-06-10T12:20:23;32.60;36.10
19567;DHT22;9930;49.240;8.548;2023-06-10T12:22:54;32.70;35.60
19567;DHT22;9930;49.240;8.548;2023-06-10T12:25:31;32.80;35.70
19567;DHT22;9930;49.240;8.548;2023-06-10T12:27:59;32.80;35.60
19567;DHT22;9930;49.240;8.548;2023-06-10T12:30:29;32.90;36.10
19567;DHT22;9930;49.240;8.548;2023-06-10T12:32:55;33.00;35.90
19567;DHT22;9930;49.240;8.548;2023-06-10T12:35:27;33.10;36.00
19567;DHT22;9930;49.240;8.548;2023-06-10T12:38:04;33.20;34.80
19567;DHT22;9930;49.240;8.548;2023-06-10T12:40:37;33.20;34.80
19567;DHT22;9930;49.240;8.548;2023-06-10T12:43:09;33.20;35.20
19567;DHT22;9930;49.240;8.548;2023-06-10T12:45:39;33.30;35.20
19567;DHT22;9930;49.240;8.548;2023-06-10T12:48:16;33.30;35.20
19567;DHT22;9930;49.240;8.548;2023-06-10T12:50:56;33.30;34.90
19567;DHT22;9930;49.240;8.548;2023-06-10T12:53:28;33.30;34.30
19567;DHT22;9930;49.240;8.548;2023-06-10T12:55:58;33.30;34.50
19567;DHT22;9930;49.240;8.548;2023-06-10T12:58:26;33.20;34.60
19567;DHT22;9930;49.240;8.548;2023-06-10T13:00:52;33.20;34.70
19567;DHT22;9930;49.240;8.548;2023-06-10T13:03:22;33.20;34.80
19567;DHT22;9930;49.240;8.548;2023-06-10T13:05:49;33.20;34.90
19567;DHT22;9930;49.240;8.548;2023-06-10T13:08:20;33.30;34.90
19567;DHT22;9930;49.240;8.548;2023-06-10T13:10:48;33.30;35.30
19567;DHT22;9930;49.240;8.548;2023-06-10T13:13:14;33.40;35.40
19567;DHT22;9930;49.240;8.548;2023-06-10T13:15:40;33.40;35.20
19567;DHT22;9930;49.240;8.548;2023-06-10T13:18:08;33.50;34.70
19567;DHT22;9930;49.240;8.548;2023-06-10T13:20:40;33.50;34.50
19567;DHT22;9930;49.240;8.548;2023-06-10T13:23:09;33.50;34.20
19567;DHT22;9930;49.240;8.548;2023-06-10T13:25:37;33.40;34.00
19567;DHT22;9930;49.240;8.548;2023-06-10T13:28:06;33.40;34.50
19567;DHT22;9930;49.240;8.548;2023-06-10T13:30:42;33.40;34.50
19567;DHT22;9930;49.240;8.548;2023-06-10T13:33:07;33.30;34.50
19567;DHT22;9930;49.240;8.548;2023-06-10T13:35:39;33.30;34.70
19567;DHT22;9930;49.240;8.548;2023-06-10T13:38:10;33.40;34.50
19567;DHT22;9930;49.240;8.548;2023-06-10T13:40:42;33.30;33.90
19567;DHT22;9930;49.240;8.548;2023-06-10T13:43:10;33.30;33.90
19567;DHT22;9930;49.240;8.548;2023-06-10T13:45:39;33.30;34.00
19567;DHT22;9930;49.240;8.548;2023-06-10T13:48:07;33.30;33.90
19567;DHT22;9930;49.240;8.548;2023-06-10T13:50:37;33.30;34.20
19567;DHT22;9930;49.240;8.548;2023-06-10T13:53:03;33.30;34.40
19567;DHT22;9930;49.240;8.548;2023-06-10T13:55:29;33.30;34.40
19567;DHT22;9930;49.240;8.548;2023-06-10T13:57:54;33.30;34.10
19567;DHT22;9930;49.240;8.548;2023-06-10T14:00:23;33.30;34.10
19567;DHT22;9930;49.240;8.548;2023-06-10T14:02:48;33.30;34.10
19567;DHT22;9930;49.240;8.548;2023-06-10T14:05:21;33.20;33.90
19567;DHT22;9930;49.240;8.548;2023-06-10T14:07:47;33.20;33.80
19567;DHT22;9930;49.240;8.548;2023-06-10T14:10:15;33.20;33.80
19567;DHT22;9930;49.240;8.548;2023-06-10T14:12:43;33.20;33.30
19567;DHT22;9930;49.240;8.548;2023-06-10T14:15:11;33.20;33.30
19567;DHT22;9930;49.240;8.548;2023-06-10T14:17:42;33.20;33.60
19567;DHT22;9930;49.240;8.548;2023-06-10T14:20:09;33.10;33.60
19567;DHT22;9930;49.240;8.548;2023-06-10T14:22:37;33.10;33.90
19567;DHT22;9930;49.240;8.548;2023-06-10T14:25:04;33.10;34.10
19567;DHT22;9930;49.240;8.548;2023-06-10T14:27:30;33.10;34.20
19567;DHT22;9930;49.240;8.548;2023-06-10T14:29:56;33.20;34.20
19567;DHT22;9930;49.240;8.548;2023-06-10T14:32:22;33.20;33.60
19567;DHT22;9930;49.240;8.548;2023-06-10T14:34:49;33.20;33.50
19567;DHT22;9930;49.240;8.548;2023-06-10T14:37:17;33.10;33.00
19567;DHT22;9930;49.240;8.548;2023-06-10T14:39:45;33.00;32.90
19567;DHT22;9930;49.240;8.548;2023-06-10T14:42:11;33.00;33.10
19567;DHT22;9930;49.240;8.548;2023-06-10T14:44:37;33.00;33.30
19567;DHT22;9930;49.240;8.548;2023-06-10T14:47:03;32.90;33.60
19567;DHT22;9930;49.240;8.548;2023-06-10T14:49:34;32.90;33.40
19567;DHT22;9930;49.240;8.548;2023-06-10T14:51:59;32.90;33.50
19567;DHT22;9930;49.240;8.548;2023-06-10T14:54:25;32.90;33.40
19567;DHT22;9930;49.240;8.548;2023-06-10T14:56:51;32.90;33.40
19567;DHT22;9930;49.240;8.548;2023-06-10T14:59:18;32.90;33.10
19567;DHT22;9930;49.240;8.548;2023-06-10T15:01:44;32.90;33.20
19567;DHT22;9930;49.240;8.548;2023-06-10T15:04:10;32.90;32.80
19567;DHT22;9930;49.240;8.548;2023-06-10T15:06:37;32.90;32.90
19567;DHT22;9930;49.240;8.548;2023-06-10T15:09:09;33.00;33.00
19567;DHT22;9930;49.240;8.548;2023-06-10T15:11:37;33.00;32.90
19567;DHT22;9930;49.240;8.548;2023-06-10T15:14:06;33.00;32.70
19567;DHT22;9930;49.240;8.548;2023-06-10T15:16:35;33.00;32.70
19567;DHT22;9930;49.240;8.548;2023-06-10T15:19:04;33.00;32.60
19567;DHT22;9930;49.240;8.548;2023-06-10T15:21:32;33.00;32.70
19567;DHT22;9930;49.240;8.548;2023-06-10T15:24:00;33.00;32.60
19567;DHT22;9930;49.240;8.548;2023-06-10T15:26:28;33.00;32.70
19567;DHT22;9930;49.240;8.548;2023-06-10T15:28:54;32.90;32.60
19567;DHT22;9930;49.240;8.548;2023-06-10T15:31:20;32.90;32.60
19567;DHT22;9930;49.240;8.548;2023-06-10T15:33:48;32.90;32.70
19567;DHT22;9930;49.240;8.548;2023-06-10T15:36:16;32.90;32.80
19567;DHT22;9930;49.240;8.548;2023-06-10T15:38:42;32.90;33.00
19567;DHT22;9930;49.240;8.548;2023-06-10T15:41:11;32.90;32.90
19567;DHT22;9930;49.240;8.548;2023-06-10T15:43:39;32.90;32.90
19567;DHT22;9930;49.240;8.548;2023-06-10T15:46:08;32.90;33.00
19567;DHT22;9930;49.240;8.548;2023-06-10T15:48:34;32.90;32.70
19567;DHT22;9930;49.240;8.548;2023-06-10T15:51:00;32.90;32.60
19567;DHT22;9930;49.240;8.548;2023-06-10T15:53:30;32.90;32.60
19567;DHT22;9930;49.240;8.548;2023-06-10T15:55:55;32.80;32.60
19567;DHT22;9930;49.240;8.548;2023-06-10T15:58:21;32.80;32.90
19567;DHT22;9930;49.240;8.548;2023-06-10T16:00:49;32.80;33.00
19567;DHT22;9930;49.240;8.548;2023-06-10T16:03:19;32.80;33.10
19567;DHT22;9930;49.240;8.548;2023-06-10T16:05:47;32.80;33.10
19567;DHT22;9930;49.240;8.548;2023-06-10T16:08:13;32.80;33.10